Time;durP1;ratioP1;P1;durP2;ratioP2;P2;SDS_P1;SDS_P2;PMS_P1;PMS_P2;Temp;Humidity;BMP_temperature;BMP_pressure;BME280_temperature;BME280_humidity;BME280_pressure;Samples;Min_cycle;Max_cycle;Signal;HPM_P1;HPM_P2
2023/02/09 00:01:26;;;;;;;14.35;8.30;;;1.10;99.90;;;;;;5080200;28;20423;-62
2023/02/09 00:03:53;;;;;;;12.77;8.35;;;1.00;99.90;;;;;;5086529;28;20513;-63
2023/02/09 00:06:22;;;;;;;13.17;8.27;;;0.90;99.90;;;;;;5084476;28;20936;-63
2023/02/09 00:08:49;;;;;;;13.57;8.30;;;0.90;99.90;;;;;;5083502;28;20895;-63
2023/02/09 00:11:20;;;;;;;13.18;8.13;;;0.90;99.90;;;;;;5079675;28;20463;-62
2023/02/09 00:13:47;;;;;;;12.27;7.95;;;0.80;99.90;;;;;;5086362;28;20413;-66
2023/02/09 00:16:14;;;;;;;12.90;8.07;;;0.90;99.90;;;;;;5078159;28;20417;-63
2023/02/09 00:18:40;;;;;;;11.73;8.27;;;0.80;99.90;;;;;;5082262;28;20467;-62
2023/02/09 00:21:10;;;;;;;11.63;8.07;;;0.70;99.90;;;;;;5081044;28;20837;-63
2023/02/09 00:23:40;;;;;;;12.50;8.68;;;0.60;99.90;;;;;;5079305;28;20530;-63
2023/02/09 00:26:08;;;;;;;13.02;8.48;;;0.70;99.90;;;;;;5080829;28;20425;-63
2023/02/09 00:28:36;;;;;;;15.32;8.52;;;0.60;99.90;;;;;;5081973;28;20475;-64
2023/02/09 00:31:07;;;;;;;14.75;8.85;;;0.60;99.90;;;;;;5076322;28;20416;-63
2023/02/09 00:33:34;;;;;;;12.65;8.15;;;0.70;99.90;;;;;;5079305;28;20891;-63
2023/02/09 00:36:03;;;;;;;13.60;8.45;;;0.60;99.90;;;;;;5084945;28;20475;-65
2023/02/09 00:38:29;;;;;;;13.73;8.82;;;0.70;99.90;;;;;;5081968;28;20406;-63
2023/02/09 00:40:56;;;;;;;15.57;8.75;;;0.60;99.90;;;;;;5078398;28;20435;-63
2023/02/09 00:43:22;;;;;;;14.13;9.17;;;0.60;99.90;;;;;;5087576;28;20466;-63
2023/02/09 00:45:49;;;;;;;14.70;9.23;;;0.50;99.90;;;;;;5084614;28;20414;-64
2023/02/09 00:48:17;;;;;;;14.63;9.63;;;0.60;99.90;;;;;;5085357;28;20418;-61
2023/02/09 00:50:44;;;;;;;15.83;9.00;;;0.50;99.90;;;;;;5081274;28;20452;-63
2023/02/09 00:53:10;;;;;;;15.05;9.77;;;0.60;99.90;;;;;;5077207;28;20417;-62
2023/02/09 00:55:37;;;;;;;18.58;9.13;;;0.50;99.90;;;;;;5083987;28;20416;-62
2023/02/09 00:58:04;;;;;;;15.48;9.52;;;0.50;99.90;;;;;;5078382;28;20416;-62
2023/02/09 01:00:30;;;;;;;14.23;9.00;;;0.40;99.90;;;;;;5081403;28;20471;-62
2023/02/09 01:02:58;;;;;;;15.10;9.02;;;0.40;99.90;;;;;;5079727;28;20833;-62
2023/02/09 01:05:26;;;;;;;16.05;9.10;;;0.30;99.90;;;;;;5073922;28;20418;-62
2023/02/09 01:07:53;;;;;;;13.38;8.65;;;0.40;99.90;;;;;;5080075;28;20407;-62
2023/02/09 01:10:19;;;;;;;13.52;8.93;;;0.30;99.90;;;;;;5084588;28;20463;-62
2023/02/09 01:12:46;;;;;;;12.68;8.70;;;0.20;99.90;;;;;;5085496;28;20451;-62
2023/02/09 01:15:13;;;;;;;14.07;8.80;;;0.30;99.90;;;;;;5086271;28;20896;-62
2023/02/09 01:17:40;;;;;;;13.82;8.80;;;0.30;99.90;;;;;;5079548;28;20438;-62
2023/02/09 01:20:09;;;;;;;15.13;9.13;;;0.30;99.90;;;;;;5083072;28;20454;-62
2023/02/09 01:22:37;;;;;;;12.95;8.70;;;0.30;99.90;;;;;;5078810;28;20407;-62
2023/02/09 01:25:05;;;;;;;15.57;9.15;;;0.30;99.90;;;;;;5081725;28;20423;-62
2023/02/09 01:27:32;;;;;;;13.50;8.88;;;0.30;99.90;;;;;;5081942;28;20418;-62
2023/02/09 01:29:59;;;;;;;14.68;9.75;;;0.30;99.90;;;;;;5078622;28;20419;-62
2023/02/09 01:32:26;;;;;;;15.77;9.60;;;0.40;99.90;;;;;;5081085;28;20482;-62
2023/02/09 01:34:54;;;;;;;13.75;9.00;;;0.40;99.90;;;;;;5078960;28;20423;-62
2023/02/09 01:37:21;;;;;;;15.60;8.77;;;0.40;99.90;;;;;;5081916;28;20471;-62
2023/02/09 01:39:49;;;;;;;14.82;9.77;;;0.40;99.90;;;;;;5084150;28;20421;-62
2023/02/09 01:42:17;;;;;;;14.77;9.27;;;0.40;99.90;;;;;;5081587;28;20436;-62
2023/02/09 01:45:20;;;;;;;14.45;9.57;;;0.40;99.90;;;;;;5082088;28;20481;-62
2023/02/09 01:47:52;;;;;;;16.80;9.70;;;0.30;99.90;;;;;;5074490;28;20485;-62
2023/02/09 01:50:19;;;;;;;14.50;9.30;;;0.30;99.90;;;;;;5084544;28;20523;-62
2023/02/09 01:52:48;;;;;;;15.20;9.38;;;0.40;99.90;;;;;;5079814;28;20422;-62
2023/02/09 01:55:20;;;;;;;14.50;9.63;;;0.30;99.90;;;;;;5078583;28;20481;-62
2023/02/09 01:57:52;;;;;;;15.25;9.95;;;0.20;99.90;;;;;;5083030;28;20409;-62
2023/02/09 02:00:21;;;;;;;17.65;9.48;;;0.20;99.90;;;;;;5083244;28;20462;-62
2023/02/09 02:02:51;;;;;;;13.35;9.00;;;0.20;99.90;;;;;;5085848;28;20477;-62
2023/02/09 02:05:19;;;;;;;16.45;9.70;;;0.20;99.90;;;;;;5077206;28;20906;-62
2023/02/09 02:07:52;;;;;;;16.00;9.80;;;0.20;99.90;;;;;;5085452;28;20465;-61
2023/02/09 02:10:21;;;;;;;18.00;10.27;;;0.20;99.90;;;;;;5080497;28;20405;-62
2023/02/09 02:12:47;;;;;;;15.98;9.20;;;0.30;99.90;;;;;;5085463;28;20947;-62
2023/02/09 02:15:14;;;;;;;16.63;9.50;;;0.30;99.90;;;;;;5085450;28;20417;-62
2023/02/09 02:17:59;;;;;;;15.18;9.90;;;0.30;99.90;;;;;;5084341;28;20418;-62
2023/02/09 02:20:58;;;;;;;15.63;9.23;;;0.30;99.90;;;;;;5077069;28;20477;-62
2023/02/09 02:23:30;;;;;;;17.50;9.55;;;0.20;99.90;;;;;;5080646;28;20777;-62
2023/02/09 02:26:22;;;;;;;14.87;9.30;;;0.20;99.90;;;;;;5087436;28;20463;-62
2023/02/09 02:29:22;;;;;;;15.30;9.30;;;0.10;99.90;;;;;;5082238;28;20468;-62
2023/02/09 02:32:15;;;;;;;16.33;9.60;;;0.20;99.90;;;;;;5069610;28;20430;-62
2023/02/09 02:34:47;;;;;;;16.45;9.93;;;0.20;99.90;;;;;;5080906;28;20467;-62
2023/02/09 02:37:34;;;;;;;16.95;9.73;;;0.20;99.90;;;;;;5083918;28;20453;-62
2023/02/09 02:40:10;;;;;;;15.15;10.10;;;0.10;99.90;;;;;;5084314;28;20417;-62
2023/02/09 02:42:51;;;;;;;15.85;10.40;;;0.10;99.90;;;;;;5087381;28;20909;-62
2023/02/09 02:45:32;;;;;;;16.23;10.13;;;0.10;99.90;;;;;;5082804;28;20416;-61
2023/02/09 02:48:10;;;;;;;18.48;11.00;;;0.00;1.00;;;;;;5080427;28;20405;-62
2023/02/09 02:50:42;;;;;;;16.45;10.05;;;0.00;1.00;;;;;;5076249;28;20412;-62
2023/02/09 02:53:12;;;;;;;15.05;9.07;;;0.00;1.00;;;;;;5082072;28;20477;-62
2023/02/09 02:55:40;;;;;;;18.58;10.23;;;0.00;1.00;;;;;;5086833;28;20419;-62
2023/02/09 02:58:11;;;;;;;16.80;9.77;;;0.00;1.00;;;;;;5084515;28;20915;-62
2023/02/09 03:00:42;;;;;;;17.58;10.00;;;0.00;1.00;;;;;;5082648;28;20427;-62
2023/02/09 03:03:16;;;;;;;19.08;10.02;;;0.00;1.00;;;;;;5082930;28;20549;-62
2023/02/09 03:05:44;;;;;;;16.10;10.05;;;0.00;99.90;;;;;;5085547;28;20423;-62
2023/02/09 03:08:10;;;;;;;16.52;9.82;;;0.00;1.00;;;;;;5083672;28;20459;-62
2023/02/09 03:10:39;;;;;;;16.40;10.25;;;-0.10;1.00;;;;;;5079877;28;20955;-62
2023/02/09 03:13:18;;;;;;;16.05;10.07;;;-0.10;1.00;;;;;;5088438;28;20407;-62
2023/02/09 03:15:58;;;;;;;17.58;10.15;;;-0.20;1.00;;;;;;5085036;28;20429;-62
2023/02/09 03:18:32;;;;;;;16.33;9.82;;;-0.20;1.00;;;;;;5072891;28;20910;-62
2023/02/09 03:21:06;;;;;;;16.23;10.05;;;-0.20;1.00;;;;;;5080001;28;20829;-62
2023/02/09 03:23:45;;;;;;;16.27;9.98;;;-0.20;1.00;;;;;;5083641;28;20412;-62
2023/02/09 03:26:18;;;;;;;15.77;10.18;;;-0.20;1.00;;;;;;5076944;28;20415;-63
2023/02/09 03:28:46;;;;;;;17.75;10.55;;;-0.30;1.00;;;;;;5082536;28;20421;-62
2023/02/09 03:31:13;;;;;;;16.60;9.60;;;-0.30;1.00;;;;;;5088062;28;20410;-61
2023/02/09 03:33:42;;;;;;;16.83;10.18;;;-0.30;1.00;;;;;;5071853;28;20419;-62
2023/02/09 03:36:13;;;;;;;16.25;10.15;;;-0.30;1.00;;;;;;5079821;28;20424;-62
2023/02/09 03:38:40;;;;;;;16.98;10.95;;;-0.40;1.00;;;;;;5082170;28;20407;-62
2023/02/09 03:41:07;;;;;;;16.45;10.48;;;-0.40;1.00;;;;;;5082665;28;20795;-62
2023/02/09 03:46:17;;;;;;;17.08;10.55;;;-0.40;1.00;;;;;;5082702;28;20961;-62
2023/02/09 03:48:46;;;;;;;17.13;10.43;;;-0.40;1.00;;;;;;5082455;28;20404;-62
2023/02/09 03:51:13;;;;;;;17.70;10.88;;;-0.40;1.00;;;;;;5083149;28;20413;-62
2023/02/09 03:53:40;;;;;;;15.73;9.90;;;-0.50;1.00;;;;;;5081653;28;20482;-62
2023/02/09 03:56:08;;;;;;;15.98;10.43;;;-0.50;1.00;;;;;;5079292;28;20418;-62
2023/02/09 03:58:35;;;;;;;17.02;10.70;;;-0.50;1.00;;;;;;5080592;28;20870;-62
2023/02/09 04:01:04;;;;;;;17.45;10.10;;;-0.50;1.00;;;;;;5083984;28;20850;-62
2023/02/09 04:03:31;;;;;;;18.05;10.48;;;-0.50;1.00;;;;;;5071712;28;20827;-62
2023/02/09 04:05:59;;;;;;;17.13;10.27;;;-0.60;1.00;;;;;;5082400;28;20413;-62
2023/02/09 04:08:28;;;;;;;16.58;10.95;;;-0.60;1.00;;;;;;5079909;28;20419;-62
2023/02/09 04:10:55;;;;;;;16.67;10.85;;;-0.60;1.00;;;;;;5081256;28;20423;-62
2023/02/09 04:13:21;;;;;;;16.75;10.40;;;-0.60;1.00;;;;;;5084387;28;20773;-62
2023/02/09 04:15:48;;;;;;;16.20;10.13;;;-0.60;1.00;;;;;;5083826;28;20422;-62
2023/02/09 04:18:15;;;;;;;15.82;10.48;;;-0.50;1.00;;;;;;5082382;28;20423;-62
2023/02/09 04:20:42;;;;;;;16.20;10.30;;;-0.60;1.00;;;;;;5082159;28;20877;-62
2023/02/09 04:23:10;;;;;;;17.23;10.98;;;-0.60;1.00;;;;;;5077761;28;20416;-63
2023/02/09 04:25:36;;;;;;;17.40;10.75;;;-0.50;1.00;;;;;;5082705;28;20419;-62
2023/02/09 04:28:03;;;;;;;17.15;10.43;;;-0.60;1.00;;;;;;5081316;28;20903;-62
2023/02/09 04:30:30;;;;;;;17.47;11.07;;;-0.60;1.00;;;;;;5082298;28;20423;-62
2023/02/09 04:32:57;;;;;;;17.38;10.82;;;-0.70;1.00;;;;;;5071010;28;20429;-62
2023/02/09 04:35:23;;;;;;;18.73;11.38;;;-0.70;1.00;;;;;;5079177;28;20434;-62
2023/02/09 04:37:50;;;;;;;18.60;11.45;;;-0.80;1.00;;;;;;5078708;28;20417;-62
2023/02/09 04:40:19;;;;;;;17.83;11.43;;;-0.70;1.00;;;;;;5081851;28;20447;-62
2023/02/09 04:42:45;;;;;;;18.90;11.88;;;-0.80;1.00;;;;;;5079226;28;20840;-62
2023/02/09 04:45:12;;;;;;;17.15;10.52;;;-0.80;1.00;;;;;;5082860;28;20502;-63
2023/02/09 04:47:39;;;;;;;16.08;10.40;;;-0.70;1.00;;;;;;5081335;28;20409;-62
2023/02/09 04:50:06;;;;;;;18.92;11.15;;;-0.70;1.00;;;;;;5082323;28;20417;-62
2023/02/09 04:52:33;;;;;;;17.67;11.38;;;-0.80;1.00;;;;;;5080677;28;20404;-62
2023/02/09 04:54:59;;;;;;;17.13;10.98;;;-0.80;1.00;;;;;;5080320;28;20419;-62
2023/02/09 05:00:13;;;;;;;19.17;11.38;;;-0.80;1.00;;;;;;5084977;28;20409;-61
2023/02/09 05:02:40;;;;;;;17.58;11.07;;;-0.90;1.00;;;;;;5081717;28;20541;-62
2023/02/09 05:05:07;;;;;;;18.08;11.38;;;-0.80;2.90;;;;;;5078807;28;20790;-62
2023/02/09 05:07:33;;;;;;;19.27;11.70;;;-0.80;3.80;;;;;;5081138;28;20465;-61
2023/02/09 05:10:00;;;;;;;18.48;11.98;;;-0.90;14.20;;;;;;5082449;28;20425;-62
2023/02/09 05:12:28;;;;;;;20.52;11.98;;;-0.90;6.10;;;;;;5080589;28;20807;-62
2023/02/09 05:14:55;;;;;;;17.77;11.55;;;-0.90;30.70;;;;;;5084880;28;20419;-62
2023/02/09 05:17:21;;;;;;;17.70;11.10;;;-0.90;47.60;;;;;;5082853;28;20408;-62
2023/02/09 05:19:48;;;;;;;20.35;12.15;;;-0.90;45.50;;;;;;5079196;28;20427;-62
2023/02/09 05:22:15;;;;;;;17.48;11.48;;;-0.90;80.30;;;;;;5078322;28;20453;-60
2023/02/09 05:24:42;;;;;;;19.30;11.85;;;-1.00;83.60;;;;;;5085562;28;20418;-60
2023/02/09 05:27:08;;;;;;;19.38;12.02;;;-1.00;81.60;;;;;;5078609;28;20416;-59
2023/02/09 05:29:36;;;;;;;19.20;10.93;;;-0.90;73.90;;;;;;5080047;28;20421;-59
2023/02/09 05:32:03;;;;;;;19.98;11.35;;;-1.00;58.00;;;;;;5080581;28;20881;-60
2023/02/09 05:34:30;;;;;;;18.57;11.80;;;-1.00;93.10;;;;;;5085900;28;20421;-60
2023/02/09 05:36:57;;;;;;;17.85;11.75;;;-1.00;97.30;;;;;;5083059;28;20433;-60
2023/02/09 05:39:23;;;;;;;18.65;12.32;;;-1.10;99.90;;;;;;5086726;28;20432;-60
2023/02/09 05:44:34;;;;;;;19.63;12.18;;;-1.10;99.90;;;;;;5085025;28;20523;-60
2023/02/09 05:47:02;;;;;;;19.33;12.23;;;-1.10;99.90;;;;;;5091640;28;20413;-61
2023/02/09 05:49:29;;;;;;;18.87;12.03;;;-1.10;99.90;;;;;;5090115;28;20531;-60
2023/02/09 05:51:56;;;;;;;21.45;12.23;;;-1.10;99.90;;;;;;5087999;28;20405;-59
2023/02/09 05:54:22;;;;;;;19.23;11.55;;;-1.20;99.90;;;;;;5086177;28;20413;-59
2023/02/09 05:56:49;;;;;;;20.95;12.70;;;-1.20;99.90;;;;;;5090968;28;20422;-60
2023/02/09 05:59:16;;;;;;;17.35;11.82;;;-1.20;99.90;;;;;;5084111;28;20406;-60
2023/02/09 06:01:42;;;;;;;20.60;12.15;;;-1.20;99.90;;;;;;5084132;28;20427;-61
2023/02/09 06:04:10;;;;;;;22.00;12.70;;;-1.30;99.90;;;;;;5084023;28;20409;-59
2023/02/09 06:06:37;;;;;;;20.73;12.80;;;-1.30;99.90;;;;;;5084790;28;20423;-60
2023/02/09 06:09:04;;;;;;;20.63;12.52;;;-1.20;99.90;;;;;;5085843;28;20827;-58
2023/02/09 06:11:31;;;;;;;20.98;12.70;;;-1.10;99.90;;;;;;5084633;28;20406;-60
2023/02/09 06:13:58;;;;;;;20.92;12.98;;;-1.20;99.90;;;;;;5087134;28;20429;-60
2023/02/09 06:16:25;;;;;;;21.17;13.65;;;-1.20;99.90;;;;;;5081117;28;20437;-60
2023/02/09 06:18:51;;;;;;;21.90;12.95;;;-1.20;99.90;;;;;;5084963;28;20417;-58
2023/02/09 06:21:19;;;;;;;22.58;13.43;;;-1.20;99.90;;;;;;5086162;28;20911;-64
2023/02/09 06:23:46;;;;;;;21.52;13.57;;;-1.30;99.90;;;;;;5084776;28;20422;-62
2023/02/09 06:26:15;;;;;;;21.17;12.95;;;-1.30;99.90;;;;;;5084008;28;20900;-63
2023/02/09 06:28:42;;;;;;;20.98;13.63;;;-1.30;99.90;;;;;;5084100;28;20409;-64
2023/02/09 06:31:09;;;;;;;20.65;13.10;;;-1.20;99.90;;;;;;5081829;28;20447;-64
2023/02/09 06:33:38;;;;;;;22.13;13.98;;;-1.20;99.90;;;;;;5081108;28;20831;-65
2023/02/09 06:36:06;;;;;;;22.33;14.00;;;-1.00;99.90;;;;;;5087672;28;20427;-64
2023/02/09 06:38:36;;;;;;;22.08;13.63;;;-1.30;99.90;;;;;;5087120;28;20904;-63
2023/02/09 06:41:03;;;;;;;22.27;13.77;;;-1.30;99.90;;;;;;5084563;28;20748;-61
2023/02/09 06:43:30;;;;;;;23.23;14.03;;;-1.30;99.90;;;;;;5086963;28;20429;-64
2023/02/09 06:45:57;;;;;;;22.02;13.57;;;-1.30;99.90;;;;;;5082919;28;20415;-64
2023/02/09 06:48:23;;;;;;;23.88;13.63;;;-1.40;99.90;;;;;;5083284;28;20414;-64
2023/02/09 06:50:50;;;;;;;21.35;13.35;;;-1.40;99.90;;;;;;5082653;28;20487;-63
2023/02/09 06:53:17;;;;;;;21.13;13.48;;;-1.30;99.90;;;;;;5080644;28;20433;-64
2023/02/09 06:55:45;;;;;;;24.20;14.45;;;-1.30;99.90;;;;;;5083220;28;20928;-65
2023/02/09 06:58:12;;;;;;;20.33;13.52;;;-1.30;99.90;;;;;;5083356;28;20410;-65
2023/02/09 07:00:38;;;;;;;21.85;13.48;;;-1.30;99.90;;;;;;5087880;28;20441;-65
2023/02/09 07:03:05;;;;;;;22.58;13.77;;;-1.30;99.90;;;;;;5086614;28;20433;-63
2023/02/09 07:05:32;;;;;;;23.05;13.27;;;-1.30;99.90;;;;;;5088331;28;20409;-65
2023/02/09 07:07:58;;;;;;;20.17;12.93;;;-1.20;99.90;;;;;;5081857;28;20407;-64
2023/02/09 07:10:26;;;;;;;21.92;13.63;;;-1.20;99.90;;;;;;5081056;28;20469;-65
2023/02/09 07:12:56;;;;;;;21.48;12.95;;;-1.20;99.90;;;;;;5081096;28;20921;-66
2023/02/09 07:15:23;;;;;;;21.80;13.10;;;-1.10;99.90;;;;;;5084228;28;20406;-65
2023/02/09 07:17:50;;;;;;;23.52;13.23;;;-1.10;99.90;;;;;;5080254;28;20415;-65
2023/02/09 07:20:17;;;;;;;22.83;14.15;;;-1.20;99.90;;;;;;5082127;28;20434;-65
2023/02/09 07:22:43;;;;;;;21.15;14.10;;;-1.10;99.90;;;;;;5082507;28;20935;-64
2023/02/09 07:25:10;;;;;;;22.43;14.43;;;-1.10;99.90;;;;;;5081022;28;20418;-62
2023/02/09 07:27:37;;;;;;;22.67;13.65;;;-1.10;99.90;;;;;;5084327;28;20911;-64
2023/02/09 07:30:06;;;;;;;23.73;13.55;;;-1.10;99.90;;;;;;5080837;28;20477;-63
2023/02/09 07:32:32;;;;;;;21.33;13.65;;;-1.00;99.90;;;;;;5081567;28;20406;-64
2023/02/09 07:34:59;;;;;;;21.10;13.70;;;-1.10;99.90;;;;;;5083785;28;20477;-63
2023/02/09 07:37:26;;;;;;;20.55;13.38;;;-1.00;99.90;;;;;;5079679;28;20475;-63
2023/02/09 07:39:53;;;;;;;21.17;13.50;;;-0.90;99.90;;;;;;5086664;28;20510;-62
2023/02/09 07:42:19;;;;;;;21.13;13.73;;;-0.80;99.90;;;;;;5082700;28;20429;-62
2023/02/09 07:44:46;;;;;;;21.65;13.50;;;-0.80;99.90;;;;;;5086420;28;20443;-64
2023/02/09 07:47:14;;;;;;;21.33;13.63;;;-0.70;99.90;;;;;;5087103;28;20419;-63
2023/02/09 07:49:41;;;;;;;21.83;13.57;;;-0.70;99.90;;;;;;5081525;28;20872;-65
2023/02/09 07:52:08;;;;;;;24.70;14.18;;;-0.70;99.90;;;;;;5082893;28;20821;-66
2023/02/09 07:54:34;;;;;;;21.73;13.90;;;-0.50;99.90;;;;;;5082203;28;20405;-67
2023/02/09 07:57:01;;;;;;;21.77;13.60;;;-0.40;99.90;;;;;;5081271;28;20422;-67
2023/02/09 07:59:28;;;;;;;22.30;13.57;;;-0.40;99.90;;;;;;5079723;28;20829;-65
2023/02/09 08:01:54;;;;;;;21.27;13.35;;;-0.40;99.90;;;;;;5083651;28;20502;-64
2023/02/09 08:04:23;;;;;;;23.88;13.50;;;-0.30;99.90;;;;;;5079860;28;20427;-64
2023/02/09 08:06:52;;;;;;;21.70;14.00;;;-0.40;96.40;;;;;;5082172;28;20421;-65
2023/02/09 08:09:18;;;;;;;23.30;14.17;;;-0.30;99.90;;;;;;5081417;28;20523;-65
2023/02/09 08:11:49;;;;;;;22.10;13.60;;;-0.20;66.30;;;;;;5081659;28;20467;-64
2023/02/09 08:14:19;;;;;;;20.75;13.48;;;-0.20;65.60;;;;;;5082299;28;20410;-65
2023/02/09 08:16:47;;;;;;;20.05;13.05;;;-0.10;59.40;;;;;;5079003;28;20814;-64
2023/02/09 08:19:17;;;;;;;23.15;13.85;;;-0.10;21.50;;;;;;5080844;28;20534;-65
2023/02/09 08:21:47;;;;;;;23.75;14.05;;;0.00;1.00;;;;;;5081806;28;20414;-65
2023/02/09 08:24:16;;;;;;;21.92;13.55;;;0.10;1.00;;;;;;5080649;28;20485;-64
2023/02/09 08:26:44;;;;;;;21.50;13.75;;;0.10;1.00;;;;;;5078949;28;20893;-64
2023/02/09 08:29:11;;;;;;;23.27;13.55;;;0.20;1.00;;;;;;5080821;28;20410;-65
2023/02/09 08:31:39;;;;;;;26.20;14.30;;;0.30;1.00;;;;;;5081638;28;20455;-65
2023/02/09 08:34:06;;;;;;;23.08;13.40;;;0.30;1.00;;;;;;5079798;28;20415;-65
2023/02/09 08:36:33;;;;;;;22.33;13.40;;;0.30;1.00;;;;;;5082987;28;20417;-66
2023/02/09 08:39:02;;;;;;;22.45;13.95;;;0.30;1.00;;;;;;5081619;28;20423;-65
2023/02/09 08:41:28;;;;;;;21.80;14.02;;;0.30;1.00;;;;;;5081254;28;20427;-65
2023/02/09 08:43:55;;;;;;;20.75;13.93;;;0.40;1.00;;;;;;5082761;28;20431;-64
2023/02/09 08:46:22;;;;;;;21.63;13.50;;;0.40;1.00;;;;;;5080728;28;20410;-65
2023/02/09 08:48:48;;;;;;;20.67;13.82;;;0.50;1.00;;;;;;5081291;28;20439;-65
2023/02/09 08:51:16;;;;;;;21.20;13.70;;;0.70;1.00;;;;;;5070381;28;20403;-65
2023/02/09 08:53:46;;;;;;;21.42;13.45;;;0.70;1.00;;;;;;5070023;28;20450;-65
2023/02/09 08:56:14;;;;;;;23.52;14.05;;;0.80;1.00;;;;;;5079871;28;20819;-65
2023/02/09 08:58:41;;;;;;;20.80;13.00;;;0.90;1.00;;;;;;5081377;28;20427;-65
2023/02/09 09:01:08;;;;;;;23.65;14.05;;;0.90;1.00;;;;;;5081525;28;20417;-65
2023/02/09 09:03:35;;;;;;;22.90;14.73;;;1.00;1.00;;;;;;5079761;28;20423;-63
2023/02/09 09:06:05;;;;;;;22.52;14.20;;;0.90;1.00;;;;;;5078307;28;20407;-65
2023/02/09 09:08:33;;;;;;;21.88;14.10;;;1.20;1.00;;;;;;5080526;28;20459;-64
2023/02/09 09:11:00;;;;;;;20.70;13.82;;;1.20;1.00;;;;;;5078334;28;20411;-65
2023/02/09 09:13:29;;;;;;;21.38;13.35;;;1.10;1.00;;;;;;5081108;28;20932;-65
2023/02/09 09:15:56;;;;;;;23.23;14.13;;;1.10;1.00;;;;;;5084663;28;20418;-63
2023/02/09 09:18:23;;;;;;;21.92;14.10;;;1.20;1.00;;;;;;5084803;28;20417;-63
2023/02/09 09:20:50;;;;;;;21.33;13.55;;;1.50;1.00;;;;;;5082293;28;20471;-64
2023/02/09 09:23:17;;;;;;;20.65;13.25;;;1.60;1.00;;;;;;5085545;28;20855;-63
2023/02/09 09:25:44;;;;;;;22.35;13.82;;;1.80;99.90;;;;;;5084047;28;20896;-63
2023/02/09 09:28:11;;;;;;;21.95;13.38;;;1.90;99.90;;;;;;5080099;28;20471;-63
2023/02/09 09:30:39;;;;;;;20.38;13.27;;;1.90;99.90;;;;;;5077193;28;20414;-63
2023/02/09 09:33:05;;;;;;;22.33;13.18;;;1.90;99.90;;;;;;5078887;28;20408;-63
2023/02/09 09:35:32;;;;;;;19.75;12.68;;;2.10;99.90;;;;;;5077934;28;20798;-62
2023/02/09 09:38:00;;;;;;;22.85;13.05;;;2.10;99.90;;;;;;5083430;28;20409;-63
2023/02/09 09:40:29;;;;;;;19.92;13.40;;;2.20;99.90;;;;;;5082665;28;20443;-63
2023/02/09 09:42:58;;;;;;;23.67;13.77;;;2.30;99.90;;;;;;5084704;28;20426;-64
2023/02/09 09:45:27;;;;;;;21.48;13.48;;;2.30;99.90;;;;;;5088409;28;20411;-63
2023/02/09 09:47:56;;;;;;;21.98;13.40;;;2.10;99.90;;;;;;5086560;28;20425;-63
2023/02/09 09:50:26;;;;;;;20.00;12.65;;;2.30;99.90;;;;;;5089392;28;20417;-63
2023/02/09 09:52:56;;;;;;;20.70;13.33;;;2.40;99.90;;;;;;5086327;28;20537;-64
2023/02/09 09:55:25;;;;;;;19.05;12.60;;;2.40;99.90;;;;;;5078281;28;20418;-64
2023/02/09 09:57:54;;;;;;;19.77;13.02;;;2.50;99.90;;;;;;5080864;28;20406;-62
2023/02/09 10:00:25;;;;;;;19.77;12.35;;;2.60;99.90;;;;;;5080120;28;20410;-62
2023/02/09 10:02:51;;;;;;;21.20;12.90;;;2.60;99.90;;;;;;5078569;28;20834;-62
2023/02/09 10:05:22;;;;;;;18.55;12.23;;;2.60;99.90;;;;;;5078603;28;20958;-63
2023/02/09 10:07:54;;;;;;;19.55;12.20;;;2.60;99.90;;;;;;5081045;28;20413;-64
2023/02/09 10:10:33;;;;;;;17.87;12.13;;;2.80;99.90;;;;;;5077308;28;20521;-64
2023/02/09 10:13:02;;;;;;;20.75;12.65;;;2.90;99.90;;;;;;5084970;28;20817;-65
2023/02/09 10:15:31;;;;;;;19.70;12.50;;;3.00;99.90;;;;;;5083940;28;20417;-63
2023/02/09 10:17:59;;;;;;;21.38;12.98;;;3.00;99.90;;;;;;5079981;28;20406;-64
2023/02/09 10:21:02;;;;;;;21.60;12.52;;;2.90;99.90;;;;;;5079305;28;20461;-64
2023/02/09 10:23:38;;;;;;;18.48;11.68;;;2.80;99.90;;;;;;5022666;28;20504;-64
2023/02/09 10:26:17;;;;;;;19.17;11.52;;;3.10;99.90;;;;;;5074113;28;20473;-65
2023/02/09 10:28:46;;;;;;;17.65;11.23;;;3.00;99.90;;;;;;5082676;28;20407;-64
2023/02/09 10:31:22;;;;;;;16.83;10.98;;;3.00;99.90;;;;;;5081238;28;20415;-64
2023/02/09 10:33:52;;;;;;;17.30;11.32;;;3.10;99.90;;;;;;5072612;28;20441;-65
2023/02/09 10:36:25;;;;;;;18.77;11.43;;;3.30;99.90;;;;;;5072525;28;20421;-63
2023/02/09 10:39:01;;;;;;;17.27;11.15;;;3.30;99.90;;;;;;5072407;28;20890;-64
2023/02/09 10:41:29;;;;;;;19.55;11.50;;;3.40;99.90;;;;;;5081486;28;20432;-64
2023/02/09 10:43:56;;;;;;;15.43;11.00;;;3.40;99.90;;;;;;5084057;28;20428;-63
2023/02/09 10:46:24;;;;;;;17.00;10.73;;;3.60;99.90;;;;;;5085037;28;20414;-64
2023/02/09 10:48:51;;;;;;;16.08;10.27;;;3.60;99.90;;;;;;5084035;28;20407;-64
2023/02/09 10:51:28;;;;;;;17.67;10.70;;;3.60;99.90;;;;;;5083784;28;20950;-64
2023/02/09 10:54:01;;;;;;;17.48;11.25;;;3.80;99.90;;;;;;5082633;28;20459;-64
2023/02/09 10:56:33;;;;;;;17.15;11.00;;;3.90;99.90;;;;;;5082591;28;20411;-65
2023/02/09 10:59:02;;;;;;;18.67;10.40;;;3.80;99.90;;;;;;5080680;28;20419;-64
2023/02/09 11:01:32;;;;;;;15.97;10.10;;;3.80;99.90;;;;;;5081917;28;21007;-64
2023/02/09 11:04:01;;;;;;;15.25;9.98;;;3.80;99.90;;;;;;5082628;28;20902;-65
2023/02/09 11:06:35;;;;;;;15.25;9.85;;;3.90;99.90;;;;;;5079689;28;20481;-66
2023/02/09 11:09:06;;;;;;;16.00;9.57;;;3.80;99.90;;;;;;5081338;28;20419;-64
2023/02/09 11:11:36;;;;;;;15.75;10.23;;;3.90;99.90;;;;;;5082700;28;20424;-67
2023/02/09 11:14:04;;;;;;;13.80;9.35;;;4.00;99.90;;;;;;5082878;28;20408;-64
2023/02/09 11:16:49;;;;;;;14.63;9.70;;;3.90;99.90;;;;;;5080904;28;20407;-64
2023/02/09 11:19:35;;;;;;;17.13;9.98;;;3.90;99.90;;;;;;5083210;28;20417;-66
2023/02/09 11:22:10;;;;;;;13.52;9.02;;;4.00;99.90;;;;;;5071927;28;20840;-64
2023/02/09 11:25:01;;;;;;;15.00;9.20;;;4.00;99.90;;;;;;5071449;28;20427;-64
2023/02/09 11:27:47;;;;;;;16.75;9.52;;;4.00;99.90;;;;;;5080070;28;20413;-66
2023/02/09 11:30:26;;;;;;;14.68;9.45;;;4.60;99.90;;;;;;5080402;28;20412;-65
2023/02/09 11:32:59;;;;;;;15.25;9.38;;;4.50;99.90;;;;;;5080415;28;20420;-63
2023/02/09 11:35:36;;;;;;;15.00;9.45;;;4.70;99.90;;;;;;5081439;28;20397;-65
2023/02/09 11:38:12;;;;;;;15.00;9.10;;;4.70;99.90;;;;;;5080245;28;20412;-64
2023/02/09 11:40:42;;;;;;;14.93;8.90;;;4.80;99.90;;;;;;5081486;28;20460;-65
2023/02/09 11:43:18;;;;;;;14.13;8.60;;;5.00;99.90;;;;;;5082277;28;20425;-65
2023/02/09 11:45:47;;;;;;;13.85;9.10;;;4.80;99.90;;;;;;5071087;28;20414;-65
2023/02/09 11:48:22;;;;;;;13.77;9.27;;;4.80;99.90;;;;;;5082346;28;20990;-66
2023/02/09 11:51:01;;;;;;;14.18;8.68;;;4.80;99.90;;;;;;5081271;28;20407;-64
2023/02/09 11:53:36;;;;;;;13.13;8.32;;;4.90;99.90;;;;;;5070267;28;20422;-64
2023/02/09 11:56:04;;;;;;;13.65;8.77;;;5.00;99.90;;;;;;5077065;28;20465;-63
2023/02/09 11:58:38;;;;;;;14.50;8.45;;;5.10;99.90;;;;;;5081424;28;20406;-68
2023/02/09 12:01:12;;;;;;;14.00;8.93;;;4.90;99.90;;;;;;5085208;28;20422;-64
2023/02/09 12:03:42;;;;;;;15.77;9.10;;;4.80;99.90;;;;;;5079388;28;20548;-64
2023/02/09 12:06:10;;;;;;;14.15;9.07;;;4.60;99.90;;;;;;5079897;28;20754;-64
2023/02/09 12:08:52;;;;;;;12.88;8.82;;;4.70;99.90;;;;;;5080195;28;20842;-65
2023/02/09 12:11:30;;;;;;;14.20;8.75;;;4.90;99.90;;;;;;5079266;28;20414;-65
2023/02/09 12:14:16;;;;;;;13.48;8.43;;;5.10;99.90;;;;;;5085106;28;20938;-65
2023/02/09 12:16:47;;;;;;;13.45;9.05;;;5.50;99.90;;;;;;5080802;28;20421;-65
2023/02/09 12:19:33;;;;;;;13.25;9.32;;;5.70;99.90;;;;;;5079795;28;20412;-66
2023/02/09 12:22:33;;;;;;;13.82;9.02;;;5.80;99.90;;;;;;5079519;28;20411;-61
2023/02/09 12:25:21;;;;;;;15.73;9.13;;;5.70;99.90;;;;;;5078177;28;20431;-61
2023/02/09 12:28:30;;;;;;;14.25;8.98;;;5.70;99.90;;;;;;5077944;28;20881;-61
2023/02/09 12:31:02;;;;;;;14.00;8.97;;;5.60;99.90;;;;;;5052137;28;20425;-62
2023/02/09 12:33:32;;;;;;;15.30;9.25;;;5.50;99.90;;;;;;5080233;28;20415;-62
2023/02/09 12:36:02;;;;;;;14.57;9.25;;;5.50;99.90;;;;;;5081740;28;20406;-61
2023/02/09 12:38:59;;;;;;;12.65;9.10;;;5.70;99.90;;;;;;5079714;28;20420;-62
2023/02/09 12:41:29;;;;;;;16.13;9.30;;;5.70;99.90;;;;;;5080996;28;20414;-64
2023/02/09 12:44:46;;;;;;;16.42;10.13;;;5.60;99.90;;;;;;5080605;28;20427;-63
2023/02/09 12:47:41;;;;;;;14.53;9.93;;;5.30;99.90;;;;;;5080646;28;20417;-63
2023/02/09 12:50:21;;;;;;;17.85;10.05;;;5.40;99.90;;;;;;5071850;28;20418;-64
2023/02/09 12:53:21;;;;;;;14.43;10.15;;;5.50;99.90;;;;;;5070145;28;20921;-65
2023/02/09 12:55:58;;;;;;;17.60;10.80;;;5.70;99.90;;;;;;5069428;28;20412;-65
2023/02/09 12:58:38;;;;;;;17.42;11.02;;;5.20;99.90;;;;;;5077264;28;20493;-63
2023/02/09 13:01:06;;;;;;;14.90;10.18;;;5.10;99.90;;;;;;5081358;28;20417;-64
2023/02/09 13:03:42;;;;;;;18.85;10.95;;;5.00;99.90;;;;;;5077642;28;20431;-64